createdAt,value
2023-02-19T00:00:03.866Z,100.00
2023-02-19T00:02:35.878Z,100.00
2023-02-19T00:05:07.396Z,100.00
2023-02-19T00:07:39.148Z,100.00
2023-02-19T00:10:10.690Z,100.00
2023-02-19T00:12:42.605Z,100.00
2023-02-19T00:15:14.110Z,100.00
2023-02-19T00:17:45.984Z,100.00
2023-02-19T00:20:17.494Z,100.00
2023-02-19T00:22:49.101Z,100.00
2023-02-19T00:25:20.638Z,100.00
2023-02-19T00:27:52.459Z,100.00
2023-02-19T00:30:23.997Z,100.00
2023-02-19T00:32:55.933Z,100.00
2023-02-19T00:35:27.455Z,100.00
2023-02-19T00:37:59.286Z,100.00
2023-02-19T00:40:30.803Z,100.00
2023-02-19T00:43:02.707Z,100.00
2023-02-19T00:45:35.680Z,100.00
2023-02-19T00:48:07.374Z,100.00
2023-02-19T00:50:38.863Z,100.00
2023-02-19T00:53:10.748Z,100.00
2023-02-19T00:55:42.253Z,100.00
2023-02-19T00:58:13.800Z,100.00
2023-02-19T01:00:45.313Z,100.00
2023-02-19T01:03:16.836Z,100.00
2023-02-19T01:05:48.497Z,100.00
2023-02-19T01:08:20.037Z,100.00
2023-02-19T01:10:51.523Z,100.00
2023-02-19T01:13:23.361Z,100.00
2023-02-19T01:15:54.898Z,100.00
2023-02-19T01:18:26.766Z,100.00
2023-02-19T01:20:58.304Z,100.00
2023-02-19T01:23:30.102Z,100.00
2023-02-19T01:26:01.652Z,100.00
2023-02-19T01:28:33.659Z,100.00
2023-02-19T01:31:05.186Z,100.00
2023-02-19T01:33:36.898Z,100.00
2023-02-19T01:36:08.423Z,100.00
2023-02-19T01:38:40.229Z,100.00
2023-02-19T01:41:12.038Z,100.00
2023-02-19T01:43:44.140Z,100.00
2023-02-19T01:46:15.659Z,100.00
2023-02-19T01:48:47.546Z,100.00
2023-02-19T01:51:19.042Z,100.00
2023-02-19T01:53:50.894Z,100.00
2023-02-19T01:56:22.433Z,100.00
2023-02-19T01:58:54.492Z,100.00
2023-02-19T02:01:26.034Z,100.00
2023-02-19T02:03:57.935Z,100.00
2023-02-19T02:06:29.490Z,100.00
2023-02-19T02:09:19.952Z,100.00
2023-02-19T02:11:51.464Z,100.00
2023-02-19T02:14:23.325Z,100.00
2023-02-19T02:16:54.844Z,100.00
2023-02-19T02:19:28.044Z,100.00
2023-02-19T02:21:59.539Z,100.00
2023-02-19T02:24:31.446Z,100.00
2023-02-19T02:27:04.070Z,100.00
2023-02-19T02:29:35.911Z,100.00
2023-02-19T02:32:07.500Z,100.00
2023-02-19T02:34:39.219Z,100.00
2023-02-19T02:37:10.717Z,100.00
2023-02-19T02:39:42.668Z,100.00
2023-02-19T02:42:29.239Z,100.00
2023-02-19T02:45:19.620Z,100.00
2023-02-19T02:47:51.311Z,100.00
2023-02-19T02:50:23.190Z,100.00
2023-02-19T02:53:13.905Z,100.00
2023-02-19T02:55:45.404Z,100.00
2023-02-19T02:58:16.945Z,100.00
2023-02-19T03:01:07.430Z,100.00
2023-02-19T03:03:39.551Z,100.00
2023-02-19T03:06:11.056Z,100.00
2023-02-19T03:08:42.672Z,100.00
2023-02-19T03:11:32.900Z,100.00
2023-02-19T03:14:23.440Z,100.00
2023-02-19T03:17:13.561Z,100.00
2023-02-19T03:19:45.446Z,100.00
2023-02-19T03:22:17.018Z,100.00
2023-02-19T03:25:07.595Z,100.00
2023-02-19T03:27:39.131Z,100.00
2023-02-19T03:30:10.703Z,100.00
2023-02-19T03:32:42.302Z,100.00
2023-02-19T03:35:13.868Z,100.00
2023-02-19T03:37:45.517Z,100.00
2023-02-19T03:40:17.068Z,100.00
2023-02-19T03:42:48.562Z,100.00
2023-02-19T03:45:20.082Z,100.00
2023-02-19T03:47:53.133Z,100.00
2023-02-19T03:50:24.994Z,100.00
2023-02-19T03:52:56.490Z,100.00
2023-02-19T03:55:28.292Z,100.00
2023-02-19T03:57:59.781Z,100.00
2023-02-19T04:00:31.295Z,100.00
2023-02-19T04:03:02.798Z,100.00
2023-02-19T04:05:34.671Z,100.00
2023-02-19T04:08:06.202Z,100.00
2023-02-19T04:13:28.506Z,100.00
2023-02-19T04:16:00.007Z,100.00
2023-02-19T04:18:31.767Z,100.00
2023-02-19T04:21:03.259Z,100.00
2023-02-19T04:23:35.121Z,100.00
2023-02-19T04:26:07.983Z,100.00
2023-02-19T04:28:39.657Z,100.00
2023-02-19T04:31:11.698Z,100.00
2023-02-19T04:33:43.489Z,100.00
2023-02-19T04:36:15.007Z,100.00
2023-02-19T04:38:46.515Z,100.00
2023-02-19T04:41:18.042Z,100.00
2023-02-19T04:43:49.521Z,100.00
2023-02-19T04:46:21.090Z,100.00
2023-02-19T04:48:52.642Z,100.00
2023-02-19T04:51:24.390Z,100.00
2023-02-19T04:53:56.406Z,100.00
2023-02-19T04:56:28.334Z,100.00
2023-02-19T04:59:00.090Z,100.00
2023-02-19T05:01:31.600Z,100.00
2023-02-19T05:04:04.914Z,100.00
2023-02-19T05:06:36.469Z,100.00
2023-02-19T05:09:08.098Z,100.00
2023-02-19T05:11:39.630Z,100.00
2023-02-19T05:14:11.529Z,100.00
2023-02-19T05:16:43.066Z,100.00
2023-02-19T05:19:14.554Z,100.00
2023-02-19T05:21:46.101Z,100.00
2023-02-19T05:24:17.636Z,100.00
2023-02-19T05:26:49.127Z,100.00
2023-02-19T05:29:20.641Z,100.00
2023-02-19T05:31:52.262Z,100.00
2023-02-19T05:34:24.188Z,100.00
2023-02-19T05:36:55.684Z,100.00
2023-02-19T05:39:27.457Z,100.00
2023-02-19T05:41:58.940Z,100.00
2023-02-19T05:44:30.773Z,100.00
2023-02-19T05:47:02.278Z,100.00
2023-02-19T05:49:34.054Z,100.00
2023-02-19T05:52:05.562Z,100.00
2023-02-19T05:54:37.407Z,100.00
2023-02-19T05:57:08.972Z,100.00
2023-02-19T05:59:40.866Z,100.00
2023-02-19T06:02:12.353Z,100.00
2023-02-19T06:04:44.302Z,100.00
2023-02-19T06:07:15.781Z,100.00
2023-02-19T06:09:47.615Z,100.00
2023-02-19T06:12:19.124Z,100.00
2023-02-19T06:14:50.947Z,100.00
2023-02-19T06:17:22.424Z,100.00
2023-02-19T06:19:54.287Z,100.00
2023-02-19T06:22:25.800Z,100.00
2023-02-19T06:24:57.702Z,100.00
2023-02-19T06:27:29.246Z,100.00
2023-02-19T06:30:01.282Z,100.00
2023-02-19T06:32:32.820Z,100.00
2023-02-19T06:35:04.724Z,100.00
2023-02-19T06:37:36.259Z,100.00
2023-02-19T06:40:08.067Z,100.00
2023-02-19T06:42:39.627Z,100.00
2023-02-19T06:45:11.405Z,100.00
2023-02-19T06:47:42.953Z,100.00
2023-02-19T06:50:14.456Z,100.00
2023-02-19T06:52:45.944Z,100.00
2023-02-19T06:55:17.447Z,100.00
2023-02-19T06:57:48.950Z,100.00
2023-02-19T07:00:20.472Z,100.00
2023-02-19T07:02:56.457Z,100.00
2023-02-19T07:05:28.301Z,100.00
2023-02-19T07:07:59.820Z,100.00
2023-02-19T07:10:31.638Z,100.00
2023-02-19T07:13:03.176Z,100.00
2023-02-19T07:15:35.065Z,100.00
2023-02-19T07:18:10.305Z,100.00
2023-02-19T07:20:42.114Z,100.00
2023-02-19T07:23:13.610Z,100.00
2023-02-19T07:25:45.361Z,100.00
2023-02-19T07:28:16.934Z,100.00
2023-02-19T07:30:48.749Z,100.00
2023-02-19T07:33:20.263Z,100.00
2023-02-19T07:35:52.148Z,100.00
2023-02-19T07:38:23.673Z,100.00
2023-02-19T07:40:55.353Z,100.00
2023-02-19T07:43:26.883Z,100.00
2023-02-19T07:45:58.707Z,100.00
2023-02-19T07:48:30.227Z,100.00
2023-02-19T07:51:02.065Z,100.00
2023-02-19T07:53:33.557Z,100.00
2023-02-19T07:56:05.376Z,100.00
2023-02-19T07:58:36.875Z,100.00
2023-02-19T08:01:09.022Z,100.00
2023-02-19T08:03:40.731Z,100.00
2023-02-19T08:06:12.678Z,100.00
2023-02-19T08:08:44.275Z,100.00
2023-02-19T08:11:48.829Z,100.00
2023-02-19T08:14:20.343Z,100.00
2023-02-19T08:16:52.151Z,100.00
2023-02-19T08:19:23.846Z,100.00
2023-02-19T08:21:55.708Z,100.00
2023-02-19T08:24:27.240Z,100.00
2023-02-19T08:26:59.074Z,100.00
2023-02-19T08:29:30.581Z,100.00
2023-02-19T08:32:02.523Z,100.00
2023-02-19T08:34:34.066Z,100.00
2023-02-19T08:37:05.781Z,100.00
2023-02-19T08:39:37.292Z,100.00
2023-02-19T08:42:09.093Z,100.00
2023-02-19T08:44:40.590Z,100.00
2023-02-19T08:47:12.502Z,100.00
2023-02-19T08:49:43.987Z,100.00
2023-02-19T08:52:15.535Z,100.00
2023-02-19T08:54:47.049Z,100.00
2023-02-19T08:57:19.357Z,100.00
2023-02-19T08:59:50.858Z,100.00
2023-02-19T09:02:22.632Z,100.00
2023-02-19T09:04:54.179Z,100.00
2023-02-19T09:07:25.978Z,100.00
2023-02-19T09:09:57.546Z,100.00
2023-02-19T09:12:29.393Z,100.00
2023-02-19T09:15:01.214Z,100.00
2023-02-19T09:17:32.713Z,100.00
2023-02-19T09:20:04.588Z,100.00
2023-02-19T09:22:36.119Z,100.00
2023-02-19T09:25:08.019Z,100.00
2023-02-19T09:27:39.533Z,100.00
2023-02-19T09:30:11.133Z,100.00
2023-02-19T09:32:42.658Z,100.00
2023-02-19T09:35:14.225Z,100.00
2023-02-19T09:37:45.729Z,100.00
2023-02-19T09:40:21.512Z,98.67
2023-02-19T09:42:53.138Z,99.41
2023-02-19T09:45:24.721Z,97.93
2023-02-19T09:47:56.223Z,94.55
2023-02-19T09:50:27.935Z,93.80
2023-02-19T09:52:59.617Z,96.53
2023-02-19T09:55:31.431Z,93.21
2023-02-19T09:58:02.931Z,91.10
2023-02-19T10:00:34.833Z,88.73
2023-02-19T10:03:06.431Z,84.76
2023-02-19T10:05:38.125Z,89.42
2023-02-19T10:08:09.611Z,87.18
2023-02-19T10:10:41.776Z,89.47
2023-02-19T10:13:13.297Z,85.22
2023-02-19T10:15:44.966Z,85.45
2023-02-19T10:18:16.488Z,84.31
2023-02-19T10:20:48.258Z,82.67
2023-02-19T10:23:19.760Z,85.44
2023-02-19T10:25:51.629Z,81.48
2023-02-19T10:28:23.238Z,79.92
2023-02-19T10:30:55.047Z,78.50
2023-02-19T10:33:26.674Z,78.16
2023-02-19T10:35:58.840Z,78.01
2023-02-19T10:38:30.390Z,78.59
2023-02-19T10:41:02.308Z,79.15
2023-02-19T10:43:34.003Z,81.42
2023-02-19T10:46:06.038Z,78.97
2023-02-19T10:48:37.657Z,78.82
2023-02-19T10:51:09.955Z,77.37
2023-02-19T10:53:41.674Z,77.32
2023-02-19T10:56:13.194Z,78.13
2023-02-19T10:58:45.004Z,73.23
2023-02-19T11:01:16.594Z,71.90
2023-02-19T11:03:48.137Z,74.18
2023-02-19T11:06:20.599Z,72.15
2023-02-19T11:08:52.184Z,73.59
2023-02-19T11:11:24.128Z,71.03
2023-02-19T11:13:55.701Z,69.01
2023-02-19T11:16:27.703Z,70.30
2023-02-19T11:18:59.295Z,72.06
2023-02-19T11:21:33.755Z,69.38
2023-02-19T11:24:05.252Z,68.36
2023-02-19T11:26:38.455Z,66.26
2023-02-19T11:29:09.980Z,66.31
2023-02-19T11:31:41.657Z,70.27
2023-02-19T11:34:13.220Z,67.09
2023-02-19T11:36:45.112Z,66.90
2023-02-19T11:39:16.641Z,66.15
2023-02-19T11:41:48.426Z,66.05
2023-02-19T11:44:19.934Z,66.52
2023-02-19T11:46:51.797Z,68.50
2023-02-19T11:49:23.317Z,68.82
2023-02-19T11:51:55.147Z,70.57
2023-02-19T11:54:26.648Z,70.06
2023-02-19T11:56:58.521Z,69.80
2023-02-19T11:59:30.039Z,68.98
2023-02-19T12:02:01.806Z,68.26
2023-02-19T12:04:33.342Z,68.50
2023-02-19T12:07:05.164Z,67.02
2023-02-19T12:09:36.662Z,65.57
2023-02-19T12:12:08.897Z,64.38
2023-02-19T12:14:40.418Z,62.40
2023-02-19T12:17:12.258Z,61.25
2023-02-19T12:19:43.799Z,62.12
2023-02-19T12:22:15.356Z,62.94
2023-02-19T12:24:46.949Z,61.50
2023-02-19T12:27:19.956Z,62.88
2023-02-19T12:29:51.500Z,65.11
2023-02-19T12:32:23.301Z,64.13
2023-02-19T12:34:54.835Z,63.47
2023-02-19T12:37:26.680Z,62.38
2023-02-19T12:39:58.227Z,61.74
2023-02-19T12:42:30.015Z,61.91
2023-02-19T12:45:01.519Z,61.55
2023-02-19T12:47:33.475Z,60.13
2023-02-19T12:50:04.975Z,59.25
2023-02-19T12:52:37.090Z,59.01
2023-02-19T12:55:08.586Z,57.69
2023-02-19T12:57:40.362Z,59.03
2023-02-19T13:00:11.867Z,57.11
2023-02-19T13:02:43.721Z,58.38
2023-02-19T13:05:15.244Z,59.08
2023-02-19T13:07:46.983Z,58.75
2023-02-19T13:10:18.519Z,59.13
2023-02-19T13:12:50.400Z,58.89
2023-02-19T13:15:21.964Z,60.80
2023-02-19T13:17:53.789Z,60.85
2023-02-19T13:20:25.671Z,60.68
2023-02-19T13:23:15.837Z,63.18
2023-02-19T13:25:47.768Z,61.54
2023-02-19T13:28:19.277Z,60.92
2023-02-19T13:30:51.338Z,62.76
2023-02-19T13:33:22.972Z,63.86
2023-02-19T13:35:54.852Z,64.76
2023-02-19T13:38:26.344Z,64.32
2023-02-19T13:40:58.220Z,62.85
2023-02-19T13:43:29.712Z,61.12
2023-02-19T13:46:01.572Z,59.26
2023-02-19T13:48:33.090Z,57.94
2023-02-19T13:51:04.831Z,57.94
2023-02-19T13:53:36.337Z,56.61
2023-02-19T13:56:08.165Z,55.14
2023-02-19T13:58:39.865Z,54.95
2023-02-19T14:01:12.233Z,54.49
2023-02-19T14:03:43.974Z,54.32
2023-02-19T14:06:15.557Z,53.59
2023-02-19T14:08:47.316Z,53.38
2023-02-19T14:11:18.884Z,53.07
2023-02-19T14:13:54.502Z,51.48
2023-02-19T14:16:26.311Z,51.60
2023-02-19T14:18:57.831Z,50.49
2023-02-19T14:21:29.583Z,49.72
2023-02-19T14:24:01.107Z,50.67
2023-02-19T14:26:32.950Z,50.47
2023-02-19T14:29:04.468Z,51.17
2023-02-19T14:31:36.466Z,50.66
2023-02-19T14:34:08.336Z,53.02
2023-02-19T14:36:40.856Z,54.76
2023-02-19T14:39:12.391Z,55.90
2023-02-19T14:41:44.275Z,56.81
2023-02-19T14:44:15.778Z,59.23
2023-02-19T14:46:49.238Z,58.59
2023-02-19T14:49:20.731Z,58.39
2023-02-19T14:51:52.624Z,58.91
2023-02-19T14:54:24.104Z,59.52
2023-02-19T14:56:56.014Z,59.20
2023-02-19T14:59:27.599Z,59.23
2023-02-19T15:01:59.506Z,58.59
2023-02-19T15:04:31.467Z,59.15
2023-02-19T15:07:03.364Z,58.49
2023-02-19T15:09:34.855Z,57.73
2023-02-19T15:12:06.681Z,58.21
2023-02-19T15:14:38.216Z,56.46
2023-02-19T15:17:10.131Z,56.45
2023-02-19T15:19:41.617Z,58.06
2023-02-19T15:22:13.322Z,60.43
2023-02-19T15:24:48.244Z,59.86
2023-02-19T15:27:20.174Z,59.35
2023-02-19T15:29:53.448Z,58.11
2023-02-19T15:32:26.977Z,57.75
2023-02-19T15:34:58.499Z,58.21
2023-02-19T15:37:30.308Z,58.71
2023-02-19T15:40:01.852Z,58.91
2023-02-19T15:42:33.768Z,60.02
2023-02-19T15:45:05.350Z,60.27
2023-02-19T15:47:37.256Z,61.14
2023-02-19T15:50:09.069Z,62.35
2023-02-19T15:52:40.746Z,62.03
2023-02-19T15:55:12.249Z,62.72
2023-02-19T15:57:44.134Z,62.97
2023-02-19T16:00:15.738Z,61.54
2023-02-19T16:02:47.759Z,61.97
2023-02-19T16:05:19.349Z,61.45
2023-02-19T16:07:51.061Z,62.37
2023-02-19T16:10:22.597Z,62.50
2023-02-19T16:12:54.410Z,63.17
2023-02-19T16:15:25.945Z,63.38
2023-02-19T16:17:57.880Z,63.57
2023-02-19T16:20:29.441Z,65.09
2023-02-19T16:23:01.062Z,65.14
2023-02-19T16:25:32.666Z,65.46
2023-02-19T16:28:04.531Z,67.11
2023-02-19T16:30:36.263Z,67.93
2023-02-19T16:33:19.602Z,68.86
2023-02-19T16:35:52.482Z,68.38
2023-02-19T16:38:24.421Z,68.28
2023-02-19T16:40:56.004Z,68.77
2023-02-19T16:43:27.855Z,70.00
2023-02-19T16:45:59.446Z,70.51
2023-02-19T16:48:31.007Z,71.54
2023-02-19T16:51:02.963Z,71.63
2023-02-19T16:53:34.801Z,71.66
2023-02-19T16:56:06.378Z,73.10
2023-02-19T16:58:39.927Z,73.46
2023-02-19T17:01:11.988Z,74.29
2023-02-19T17:03:44.188Z,74.95
2023-02-19T17:06:15.786Z,75.91
2023-02-19T17:08:47.604Z,75.88
2023-02-19T17:11:19.141Z,76.70
2023-02-19T17:13:50.938Z,77.33
2023-02-19T17:16:22.703Z,77.65
2023-02-19T17:18:54.845Z,77.68
2023-02-19T17:21:26.716Z,77.94
2023-02-19T17:23:58.189Z,78.38
2023-02-19T17:26:29.848Z,79.13
2023-02-19T17:29:01.328Z,79.25
2023-02-19T17:31:34.178Z,79.88
2023-02-19T17:34:05.854Z,80.08
2023-02-19T17:36:38.294Z,81.03
2023-02-19T17:39:14.996Z,81.03
2023-02-19T17:41:46.483Z,81.53
2023-02-19T17:44:18.018Z,81.46
2023-02-19T17:46:49.745Z,81.82
2023-02-19T17:49:21.350Z,81.77
2023-02-19T17:51:53.238Z,82.16
2023-02-19T17:54:24.741Z,82.16
2023-02-19T17:56:59.595Z,82.35
2023-02-19T17:59:31.138Z,82.89
2023-02-19T18:02:03.771Z,83.23
2023-02-19T18:04:36.625Z,82.89
2023-02-19T18:07:08.884Z,83.59
2023-02-19T18:09:41.129Z,84.27
2023-02-19T18:12:12.814Z,83.97
2023-02-19T18:14:44.330Z,83.70
2023-02-19T18:17:15.843Z,83.59
2023-02-19T18:19:47.487Z,84.19
2023-02-19T18:22:18.994Z,84.41
2023-02-19T18:24:50.505Z,85.20
2023-02-19T18:27:23.814Z,85.65
2023-02-19T18:29:55.469Z,85.72
2023-02-19T18:32:27.438Z,85.50
2023-02-19T18:35:00.040Z,85.52
2023-02-19T18:37:33.411Z,85.40
2023-02-19T18:40:05.025Z,85.28
2023-02-19T18:42:36.534Z,85.71
2023-02-19T18:45:10.518Z,85.50
2023-02-19T18:47:42.447Z,85.88
2023-02-19T18:50:13.995Z,86.12
2023-02-19T18:52:45.580Z,86.44
2023-02-19T18:55:17.219Z,87.01
2023-02-19T18:57:49.059Z,87.37
2023-02-19T19:00:20.693Z,87.88
2023-02-19T19:02:52.550Z,87.95
2023-02-19T19:05:24.069Z,88.36
2023-02-19T19:07:55.671Z,88.84
2023-02-19T19:10:27.309Z,89.15
2023-02-19T19:12:58.976Z,89.17
2023-02-19T19:15:30.582Z,89.75
2023-02-19T19:18:02.823Z,89.61
2023-02-19T19:20:34.397Z,90.33
2023-02-19T19:23:06.369Z,90.74
2023-02-19T19:25:37.957Z,91.34
2023-02-19T19:28:10.005Z,91.94
2023-02-19T19:30:41.711Z,92.12
2023-02-19T19:33:14.285Z,92.83
2023-02-19T19:35:46.032Z,92.67
2023-02-19T19:38:17.601Z,93.21
2023-02-19T19:40:49.157Z,93.54
2023-02-19T19:43:20.795Z,93.10
2023-02-19T19:45:52.384Z,93.32
2023-02-19T19:48:24.298Z,93.05
2023-02-19T19:50:57.072Z,93.17
2023-02-19T19:53:28.979Z,93.09
2023-02-19T19:56:00.549Z,92.98
2023-02-19T19:58:33.440Z,93.44
2023-02-19T20:01:06.048Z,94.19
2023-02-19T20:03:38.015Z,94.35
2023-02-19T20:06:09.521Z,94.64
2023-02-19T20:08:41.300Z,95.70
2023-02-19T20:11:13.011Z,96.85
2023-02-19T20:13:44.809Z,96.75
2023-02-19T20:16:16.396Z,97.78
2023-02-19T20:18:47.983Z,98.20
2023-02-19T20:21:19.491Z,98.31
2023-02-19T20:23:51.431Z,97.98
2023-02-19T20:26:23.009Z,97.84
2023-02-19T20:28:54.806Z,98.64
2023-02-19T20:31:26.771Z,98.35
2023-02-19T20:33:58.688Z,98.49
2023-02-19T20:36:30.250Z,98.32
2023-02-19T20:39:02.046Z,99.23
2023-02-19T20:41:33.531Z,99.14
2023-02-19T20:44:05.366Z,99.28
2023-02-19T20:46:36.977Z,99.24
2023-02-19T20:49:08.870Z,100.00
2023-02-19T20:51:40.352Z,100.00
2023-02-19T20:54:12.194Z,100.00
2023-02-19T20:56:43.682Z,100.00
2023-02-19T20:59:15.226Z,100.00
2023-02-19T21:01:46.762Z,100.00
2023-02-19T21:04:19.022Z,100.00
2023-02-19T21:06:52.313Z,100.00
2023-02-19T21:09:24.160Z,100.00
2023-02-19T21:11:55.772Z,100.00
2023-02-19T21:14:27.497Z,100.00
2023-02-19T21:16:58.964Z,100.00
2023-02-19T21:19:30.536Z,100.00
2023-02-19T21:22:02.053Z,100.00
2023-02-19T21:24:33.818Z,100.00
2023-02-19T21:27:05.347Z,100.00
2023-02-19T21:29:37.369Z,100.00
2023-02-19T21:32:09.047Z,100.00
2023-02-19T21:34:40.880Z,100.00
2023-02-19T21:37:12.380Z,100.00
2023-02-19T21:39:44.191Z,100.00
2023-02-19T21:42:15.749Z,100.00
2023-02-19T21:44:47.946Z,100.00
2023-02-19T21:47:19.467Z,100.00
2023-02-19T21:49:51.166Z,100.00
2023-02-19T21:52:23.408Z,100.00
2023-02-19T21:54:54.980Z,100.00
2023-02-19T21:57:26.536Z,100.00
2023-02-19T21:59:58.470Z,100.00
2023-02-19T22:02:30.063Z,100.00
2023-02-19T22:05:02.999Z,100.00
2023-02-19T22:07:34.527Z,100.00
2023-02-19T22:10:06.430Z,100.00
2023-02-19T22:12:37.972Z,100.00
2023-02-19T22:15:09.849Z,100.00
2023-02-19T22:17:41.394Z,100.00
2023-02-19T22:20:12.940Z,100.00
2023-02-19T22:22:44.444Z,100.00
2023-02-19T22:25:15.964Z,100.00
2023-02-19T22:27:48.945Z,100.00
2023-02-19T22:30:20.557Z,100.00
2023-02-19T22:32:52.506Z,100.00
2023-02-19T22:35:24.043Z,100.00
2023-02-19T22:37:55.865Z,100.00
2023-02-19T22:40:27.374Z,100.00
2023-02-19T22:42:59.165Z,100.00
2023-02-19T22:45:30.710Z,100.00
2023-02-19T22:48:02.514Z,100.00
2023-02-19T22:50:34.021Z,100.00
2023-02-19T22:53:05.800Z,100.00
2023-02-19T22:55:37.313Z,100.00
2023-02-19T22:58:08.874Z,100.00
2023-02-19T23:00:40.377Z,100.00
2023-02-19T23:03:12.040Z,100.00
2023-02-19T23:05:43.600Z,100.00
2023-02-19T23:08:15.141Z,100.00
2023-02-19T23:10:46.631Z,100.00
2023-02-19T23:13:18.166Z,100.00
2023-02-19T23:15:49.653Z,100.00
2023-02-19T23:18:21.153Z,100.00
2023-02-19T23:20:52.618Z,100.00
2023-02-19T23:23:24.129Z,100.00
2023-02-19T23:25:55.603Z,100.00
2023-02-19T23:28:27.205Z,100.00
2023-02-19T23:30:58.808Z,100.00
2023-02-19T23:33:30.397Z,100.00
2023-02-19T23:36:01.905Z,100.00
2023-02-19T23:38:33.787Z,100.00
2023-02-19T23:41:05.282Z,100.00
2023-02-19T23:43:37.092Z,100.00
2023-02-19T23:46:08.647Z,100.00
2023-02-19T23:48:40.627Z,100.00
2023-02-19T23:51:12.148Z,100.00
2023-02-19T23:53:43.962Z,100.00
2023-02-19T23:56:15.500Z,100.00
2023-02-19T23:58:47.099Z,100.00
